Time;durP1;ratioP1;P1;durP2;ratioP2;P2;SDS_P1;SDS_P2;PMS_P1;PMS_P2;Temp;Humidity;BMP_temperature;BMP_pressure;BME280_temperature;BME280_humidity;BME280_pressure;Samples;Min_cycle;Max_cycle;Signal;HPM_P1;HPM_P2
2022/03/17 07:14:17;;;;;;;10.60;5.97;;;;;;;4.28;100.00;102724.03;5378148;23;20047;-74
2022/03/17 07:17:03;;;;;;;12.57;5.97;;;;;;;4.51;100.00;102728.38;4939121;28;20127;-75
2022/03/17 07:19:58;;;;;;;12.10;6.00;;;;;;;4.62;100.00;102734.88;4938895;28;20131;-74
2022/03/17 07:22:49;;;;;;;14.13;6.65;;;;;;;4.69;100.00;102731.72;4933668;29;20034;-75
2022/03/17 07:25:35;;;;;;;10.20;5.30;;;;;;;4.61;100.00;102747.81;4919489;29;20190;-75
2022/03/17 07:28:21;;;;;;;11.05;6.18;;;;;;;4.97;100.00;102737.13;4919460;29;20024;-74
2022/03/17 07:31:07;;;;;;;12.50;5.82;;;;;;;4.86;100.00;102748.81;4919490;29;20032;-75
2022/03/17 07:33:53;;;;;;;11.38;5.53;;;;;;;4.98;100.00;102745.78;4919385;29;20032;-75
2022/03/17 07:36:40;;;;;;;15.65;6.15;;;;;;;5.07;100.00;102740.94;4918781;29;20365;-74
2022/03/17 07:39:25;;;;;;;10.65;5.75;;;;;;;4.92;100.00;102746.47;4920016;28;20450;-74
2022/03/17 07:42:11;;;;;;;13.38;6.70;;;;;;;5.06;100.00;102746.94;4919872;28;20059;-76
2022/03/17 07:44:57;;;;;;;16.60;6.22;;;;;;;5.12;100.00;102754.97;4919327;29;20030;-75
2022/03/17 07:47:47;;;;;;;14.48;6.18;;;;;;;5.19;100.00;102749.19;4919006;29;20028;-74
2022/03/17 07:50:33;;;;;;;9.73;4.90;;;;;;;5.33;100.00;102755.75;4919974;28;20055;-74
2022/03/17 07:53:19;;;;;;;8.93;4.45;;;;;;;5.55;100.00;102750.50;4904423;29;20032;-75
2022/03/17 07:56:06;;;;;;;9.27;4.70;;;;;;;5.88;100.00;102754.28;4905062;29;20111;-73
2022/03/17 07:58:52;;;;;;;8.43;4.65;;;;;;;6.08;100.00;102767.94;4918510;29;20068;-73
2022/03/17 08:01:38;;;;;;;9.32;4.88;;;;;;;6.55;100.00;102754.75;4904735;29;20123;-75
2022/03/17 08:04:24;;;;;;;8.35;4.57;;;;;;;6.49;100.00;102758.06;4904345;29;20028;-71
2022/03/17 08:07:10;;;;;;;10.95;5.65;;;;;;;7.04;100.00;102764.09;4919664;28;20031;-73
2022/03/17 08:09:57;;;;;;;7.65;4.45;;;;;;;7.06;100.00;102765.03;4918561;29;20032;-74
2022/03/17 08:12:43;;;;;;;7.68;4.10;;;;;;;6.72;92.37;102763.97;4917908;29;20035;-75
2022/03/17 08:15:29;;;;;;;6.32;3.55;;;;;;;6.60;85.26;102776.63;4919320;29;20051;-74
2022/03/17 08:18:15;;;;;;;8.18;4.60;;;;;;;7.15;82.48;102786.13;4905244;29;20024;-71
2022/03/17 08:21:01;;;;;;;7.35;4.32;;;;;;;7.14;76.19;102779.16;4919631;28;20446;-74
2022/03/17 08:23:47;;;;;;;7.85;4.35;;;;;;;6.94;69.90;102784.59;4919506;28;20115;-74
2022/03/17 08:26:34;;;;;;;11.13;4.18;;;;;;;7.10;68.20;102790.34;4918844;29;20457;-73
2022/03/17 08:29:20;;;;;;;8.15;3.88;;;;;;;7.00;65.32;102784.81;4919424;28;20043;-74
2022/03/17 08:32:06;;;;;;;15.07;4.57;;;;;;;7.11;63.11;102792.09;4919129;29;20036;-74
2022/03/17 08:34:52;;;;;;;10.68;3.92;;;;;;;6.77;61.76;102793.63;4918804;28;20100;-74
2022/03/17 08:37:42;;;;;;;13.05;3.67;;;;;;;7.02;61.72;102793.53;4918557;29;20029;-75
2022/03/17 08:40:28;;;;;;;13.20;3.75;;;;;;;7.34;58.56;102800.59;4919380;28;20107;-73
2022/03/17 08:43:14;;;;;;;8.57;3.70;;;;;;;7.37;58.19;102804.19;4918662;28;20100;-74
2022/03/17 08:49:20;;;;;;;8.48;3.90;;;;;;;8.04;58.27;102793.84;4918500;29;20130;-74
2022/03/17 08:52:07;;;;;;;8.30;3.88;;;;;;;7.78;59.40;102808.81;4905010;29;20032;-72
2022/03/17 08:54:52;;;;;;;8.13;3.75;;;;;;;7.45;59.54;102802.69;4919354;28;20357;-73
2022/03/17 08:57:38;;;;;;;9.27;3.78;;;;;;;7.99;56.30;102813.72;4918937;29;20107;-73
2022/03/17 09:00:24;;;;;;;6.97;3.45;;;;;;;7.63;57.65;102812.75;4904762;29;20024;-71
2022/03/17 09:03:10;;;;;;;8.38;3.55;;;;;;;7.57;57.64;102809.94;4919203;29;20449;-70
2022/03/17 09:06:00;;;;;;;10.35;4.05;;;;;;;7.84;57.72;102826.38;4922084;29;20043;-71
2022/03/17 09:08:45;;;;;;;8.02;4.15;;;;;;;7.77;57.93;102812.28;4921891;29;20059;-72
2022/03/17 09:11:32;;;;;;;8.20;3.75;;;;;;;7.99;55.74;102819.81;4921953;29;20106;-74
2022/03/17 09:14:18;;;;;;;12.60;4.05;;;;;;;8.18;54.76;102829.91;4920496;29;20047;-73
2022/03/17 09:17:04;;;;;;;6.03;3.72;;;;;;;7.46;53.08;102820.09;4921096;29;20338;-73
2022/03/17 09:19:50;;;;;;;6.80;3.38;;;;;;;7.53;52.93;102831.56;4923641;29;20108;-74
2022/03/17 09:22:36;;;;;;;9.93;3.90;;;;;;;7.70;52.61;102831.22;4920954;29;20028;-72
2022/03/17 09:25:23;;;;;;;14.93;4.03;;;;;;;8.30;51.54;102827.66;4921828;29;20100;-72
2022/03/17 09:28:09;;;;;;;8.52;3.70;;;;;;;7.60;50.67;102826.56;4922370;28;20032;-73
2022/03/17 09:30:56;;;;;;;8.88;4.00;;;;;;;8.03;49.41;102836.44;4922321;28;20456;-73
2022/03/17 09:33:42;;;;;;;10.52;4.40;;;;;;;8.09;49.99;102820.94;4920875;29;20051;-73
2022/03/17 09:36:27;;;;;;;10.32;4.22;;;;;;;8.03;50.58;102821.66;4921446;29;20365;-72
2022/03/17 09:42:20;;;;;;;8.43;4.03;;;;;;;7.05;49.57;102836.25;4921585;29;20032;-73
2022/03/17 09:45:07;;;;;;;7.85;4.10;;;;;;;6.99;51.51;102835.16;4907918;29;20373;-72
2022/03/17 09:47:53;;;;;;;9.05;3.83;;;;;;;6.85;52.84;102836.44;4922039;28;20110;-72
2022/03/17 09:50:39;;;;;;;7.95;3.75;;;;;;;7.12;52.36;102839.91;4920564;29;20032;-72
2022/03/17 09:53:26;;;;;;;9.82;4.35;;;;;;;7.91;52.17;102837.00;4907768;29;20350;-72
2022/03/17 09:56:12;;;;;;;10.93;4.43;;;;;;;7.20;51.05;102834.06;4921362;29;20399;-72
2022/03/17 09:59:00;;;;;;;11.50;4.63;;;;;;;7.27;50.62;102840.38;4920436;29;20024;-73
2022/03/17 10:01:46;;;;;;;9.65;3.97;;;;;;;7.74;49.80;102840.00;4921259;29;20024;-72
2022/03/17 10:04:37;;;;;;;11.40;4.50;;;;;;;7.00;51.21;102835.22;4920519;29;20039;-71
2022/03/17 10:07:22;;;;;;;7.70;4.05;;;;;;;6.75;51.60;102834.41;4921576;28;20028;-74
2022/03/17 10:10:09;;;;;;;7.90;3.83;;;;;;;7.07;50.73;102841.50;4920437;29;20091;-71
2022/03/17 10:13:14;;;;;;;7.15;3.88;;;;;;;7.24;50.08;102855.91;4920275;29;20063;-73
2022/03/17 10:16:07;;;;;;;6.47;4.10;;;;;;;7.51;50.67;102861.97;4919434;29;20039;-73
2022/03/17 10:19:08;;;;;;;10.18;3.92;;;;;;;7.42;50.69;102853.84;4921040;29;20051;-73
2022/03/17 10:22:05;;;;;;;8.23;4.60;;;;;;;7.22;51.27;102854.97;4921287;28;20457;-72
2022/03/17 10:24:52;;;;;;;11.80;4.35;;;;;;;8.03;49.71;102859.94;4920974;29;20120;-72
2022/03/17 10:27:42;;;;;;;6.35;4.10;;;;;;;7.83;49.25;102855.91;4920412;29;20047;-72
2022/03/17 10:30:35;;;;;;;9.40;4.07;;;;;;;7.62;47.47;102864.03;4920307;29;20076;-73
2022/03/17 10:33:22;;;;;;;10.23;4.63;;;;;;;7.38;48.13;102860.69;4919214;29;20027;-72
2022/03/17 10:36:21;;;;;;;6.93;3.90;;;;;;;7.25;47.81;102858.56;4920604;29;20020;-72
2022/03/17 10:39:08;;;;;;;11.43;4.60;;;;;;;7.45;48.12;102864.38;4921242;28;20021;-72
2022/03/17 10:41:54;;;;;;;6.35;4.03;;;;;;;7.37;47.30;102865.88;4920238;29;20024;-71
2022/03/17 10:44:41;;;;;;;9.10;4.57;;;;;;;7.97;46.30;102865.00;4920157;29;20031;-77
2022/03/17 10:47:40;;;;;;;9.85;4.68;;;;;;;7.35;45.64;102868.44;4920492;28;20028;-71
2022/03/17 10:50:28;;;;;;;11.63;4.97;;;;;;;7.43;46.55;102866.94;4920703;29;20055;-72
2022/03/17 10:53:14;;;;;;;10.00;5.20;;;;;;;7.57;45.90;102856.91;4919212;29;20028;-72
2022/03/17 10:56:17;;;;;;;19.80;8.60;;;;;;;7.67;45.58;102857.19;4919966;29;20035;-71
2022/03/17 10:59:05;;;;;;;10.50;4.75;;;;;;;7.69;45.20;102868.59;4919805;29;20039;-72
2022/03/17 11:01:50;;;;;;;8.23;4.53;;;;;;;7.35;44.77;102855.38;4920331;29;20031;-71
2022/03/17 11:04:38;;;;;;;5.78;3.70;;;;;;;7.55;44.65;102856.00;4920214;28;20177;-69
2022/03/17 11:07:24;;;;;;;10.85;4.18;;;;;;;7.37;45.24;102860.66;4919854;29;20036;-70
2022/03/17 11:10:10;;;;;;;9.40;4.30;;;;;;;7.78;43.85;102863.63;4918235;29;20038;-71
2022/03/17 11:12:56;;;;;;;9.38;5.07;;;;;;;8.42;42.91;102858.41;4905556;29;20028;-72
2022/03/17 11:16:00;;;;;;;9.35;4.43;;;;;;;8.09;42.94;102847.06;4919716;29;20024;-72
2022/03/17 11:18:47;;;;;;;12.63;5.93;;;;;;;7.96;43.27;102852.81;4905479;29;20457;-71
2022/03/17 11:21:33;;;;;;;9.38;5.30;;;;;;;8.32;42.66;102856.41;4920465;28;20035;-71
2022/03/17 11:24:21;;;;;;;10.93;4.50;;;;;;;8.21;42.46;102844.81;4918951;29;20035;-71
2022/03/17 11:27:12;;;;;;;13.25;5.05;;;;;;;8.42;42.21;102848.84;4919431;29;20043;-72
2022/03/17 11:30:00;;;;;;;12.40;4.80;;;;;;;7.91;41.71;102844.84;4919800;28;20512;-72
2022/03/17 11:32:54;;;;;;;9.15;4.00;;;;;;;7.49;41.13;102855.78;4918951;29;20039;-71
2022/03/17 11:35:40;;;;;;;6.97;4.32;;;;;;;7.19;41.83;102847.94;4919885;28;20374;-71
2022/03/17 11:38:28;;;;;;;9.25;4.13;;;;;;;7.36;41.72;102846.72;4919849;29;20040;-71
2022/03/17 11:41:16;;;;;;;13.02;5.25;;;;;;;8.39;41.37;102837.41;4919188;29;20032;-71
2022/03/17 11:44:04;;;;;;;8.20;4.38;;;;;;;8.30;40.40;102835.47;4919347;29;20087;-72
2022/03/17 11:46:50;;;;;;;8.20;4.45;;;;;;;8.08;40.99;102842.69;4919124;29;20036;-71
2022/03/17 11:49:46;;;;;;;23.05;12.50;;;;;;;8.09;42.05;102840.13;4919919;28;20039;-72
2022/03/17 11:52:32;;;;;;;16.40;9.15;;;;;;;8.24;42.02;102832.69;4918273;29;20103;-71
2022/03/17 11:55:31;;;;;;;10.70;4.93;;;;;;;8.66;41.11;102825.94;4919702;28;20046;-71
2022/03/17 11:58:19;;;;;;;10.23;4.97;;;;;;;8.48;41.75;102835.06;4919753;28;20457;-71
2022/03/17 12:01:13;;;;;;;7.07;4.10;;;;;;;8.44;42.05;102830.59;4919626;28;20431;-72
2022/03/17 12:04:07;;;;;;;9.07;4.75;;;;;;;8.84;41.80;102828.09;4918480;29;20032;-71
2022/03/17 12:06:55;;;;;;;8.35;4.70;;;;;;;8.39;40.69;102830.47;4920115;28;20032;-73
2022/03/17 12:09:41;;;;;;;9.32;5.47;;;;;;;8.58;40.44;102830.09;4919761;28;20051;-71
2022/03/17 12:12:27;;;;;;;10.20;6.63;;;;;;;8.53;40.29;102830.81;4919931;29;20055;-71
2022/03/17 12:15:39;;;;;;;10.05;5.32;;;;;;;8.87;41.17;102838.59;4918092;29;20205;-71
2022/03/17 12:18:25;;;;;;;7.32;4.25;;;;;;;8.28;41.28;102839.75;4919422;29;20024;-71
2022/03/17 12:21:13;;;;;;;6.35;4.03;;;;;;;7.49;43.05;102838.44;4905119;29;20032;-71
2022/03/17 12:24:01;;;;;;;15.13;4.90;;;;;;;8.29;42.82;102833.72;4918570;29;20032;-71
2022/03/17 12:26:47;;;;;;;9.63;4.35;;;;;;;8.48;41.18;102837.69;4905484;29;20059;-73
2022/03/17 12:29:33;;;;;;;8.10;4.75;;;;;;;8.48;41.59;102827.22;4919337;28;20039;-72
2022/03/17 12:32:21;;;;;;;8.85;4.20;;;;;;;7.87;41.96;102842.97;4919343;28;20028;-72
2022/03/17 12:35:09;;;;;;;11.13;4.72;;;;;;;8.09;41.79;102842.72;4905532;29;20070;-72
2022/03/17 12:38:06;;;;;;;12.23;6.00;;;;;;;8.15;42.49;102836.75;4920705;28;20046;-74
2022/03/17 12:40:53;;;;;;;9.18;4.47;;;;;;;7.91;42.37;102838.72;4922311;29;20060;-72
2022/03/17 12:43:39;;;;;;;9.98;4.50;;;;;;;7.62;43.19;102842.25;4922568;29;20486;-70
2022/03/17 12:46:24;;;;;;;8.95;5.18;;;;;;;7.72;43.18;102844.31;4921610;29;20372;-71
2022/03/17 12:49:10;;;;;;;15.75;5.40;;;;;;;8.03;43.52;102841.66;4922185;29;20028;-72
2022/03/17 12:52:11;;;;;;;8.25;5.20;;;;;;;7.98;43.95;102845.88;4908857;29;20381;-72
2022/03/17 12:54:59;;;;;;;9.35;4.63;;;;;;;7.50;43.75;102840.19;4922135;29;20059;-71
2022/03/17 12:57:47;;;;;;;7.22;4.80;;;;;;;8.02;42.94;102845.13;4922468;28;20064;-72
2022/03/17 13:00:33;;;;;;;7.88;4.53;;;;;;;8.26;41.83;102851.03;4921827;29;20488;-72
2022/03/17 13:03:21;;;;;;;9.15;4.32;;;;;;;8.28;42.31;102850.22;4922351;28;20127;-72
2022/03/17 13:09:11;;;;;;;10.40;5.35;;;;;;;8.23;41.29;102861.38;4921351;29;20033;-72
2022/03/17 13:15:16;;;;;;;6.90;4.47;;;;;;;7.77;42.29;102858.34;4921066;29;20056;-72
2022/03/17 13:18:04;;;;;;;8.95;4.93;;;;;;;7.73;42.41;102853.88;4908515;29;20020;-72
2022/03/17 13:20:59;;;;;;;9.95;5.72;;;;;;;7.35;43.38;102864.97;4922958;28;20028;-72
2022/03/17 13:23:45;;;;;;;11.25;5.85;;;;;;;7.73;43.54;102864.31;4907819;29;20028;-72
2022/03/17 13:26:31;;;;;;;12.25;6.20;;;;;;;8.02;42.62;102858.16;4908350;29;20039;-72
2022/03/17 13:29:16;;;;;;;10.43;5.75;;;;;;;8.36;42.62;102861.75;4920820;29;20054;-71
2022/03/17 13:32:04;;;;;;;14.55;6.40;;;;;;;7.94;42.85;102863.19;4922008;29;20048;-71
2022/03/17 13:35:04;;;;;;;8.07;6.22;;;;;;;7.97;42.71;102868.50;4921668;29;20524;-73
2022/03/17 13:38:02;;;;;;;15.20;6.72;;;;;;;7.73;43.05;102862.63;4921267;29;20054;-72
2022/03/17 13:40:56;;;;;;;9.23;6.13;;;;;;;7.75;42.60;102865.22;4920140;29;20042;-71
2022/03/17 13:43:41;;;;;;;14.02;7.10;;;;;;;7.80;43.18;102864.53;4922089;28;20051;-76
2022/03/17 13:46:31;;;;;;;10.00;6.00;;;;;;;7.51;41.88;102864.56;4921419;29;20028;-72
2022/03/17 13:49:26;;;;;;;52.95;8.80;;;;;;;7.67;42.37;102870.25;4920246;29;20028;-72
2022/03/17 13:52:12;;;;;;;12.73;6.75;;;;;;;8.11;41.67;102867.13;4920932;29;20043;-72
2022/03/17 13:54:57;;;;;;;11.27;6.10;;;;;;;7.87;41.71;102863.88;4921805;28;20342;-72
2022/03/17 13:57:44;;;;;;;11.60;5.80;;;;;;;7.60;41.92;102857.84;4921581;29;20425;-70
2022/03/17 14:00:31;;;;;;;11.80;6.20;;;;;;;8.18;41.95;102868.19;4908338;29;20062;-73
2022/03/17 14:03:21;;;;;;;10.13;5.82;;;;;;;7.76;41.89;102864.41;4906947;29;20096;-74
2022/03/17 14:06:10;;;;;;;12.45;6.20;;;;;;;7.97;42.61;102865.00;4920618;29;20050;-72
2022/03/17 14:08:58;;;;;;;12.05;5.25;;;;;;;7.31;42.57;102876.13;4907161;29;20099;-72
2022/03/17 14:11:44;;;;;;;10.65;5.70;;;;;;;8.06;42.22;102873.06;4920270;29;20364;-72
2022/03/17 14:14:30;;;;;;;7.13;4.80;;;;;;;7.91;42.08;102877.88;4920662;29;20040;-72
2022/03/17 14:17:15;;;;;;;10.25;6.68;;;;;;;7.59;42.40;102868.28;4921384;28;20028;-71
2022/03/17 14:20:02;;;;;;;10.13;5.40;;;;;;;7.64;42.78;102870.16;4920085;29;20028;-72
2022/03/17 14:25:52;;;;;;;6.85;4.75;;;;;;;7.74;41.72;102871.31;4919979;29;20032;-71
2022/03/17 14:28:38;;;;;;;24.70;14.13;;;;;;;7.84;41.77;102876.81;4920104;29;20039;-70
2022/03/17 14:31:25;;;;;;;8.73;5.20;;;;;;;7.51;41.34;102875.88;4919499;29;20054;-70
2022/03/17 14:34:12;;;;;;;8.85;5.47;;;;;;;7.16;41.51;102875.66;4919497;29;20027;-71
2022/03/17 14:36:58;;;;;;;9.25;5.60;;;;;;;7.38;42.19;102878.06;4920905;29;20410;-69
2022/03/17 14:39:45;;;;;;;8.70;5.55;;;;;;;7.56;41.56;102881.22;4919852;29;20095;-71
2022/03/17 14:42:30;;;;;;;9.55;5.32;;;;;;;6.79;41.83;102878.81;4920623;28;20412;-70
2022/03/17 14:45:16;;;;;;;10.43;5.68;;;;;;;7.23;42.44;102888.06;4920849;28;20421;-71
2022/03/17 14:48:02;;;;;;;9.90;5.93;;;;;;;7.09;42.15;102889.34;4919704;29;20032;-71
2022/03/17 14:50:49;;;;;;;10.50;6.15;;;;;;;7.23;42.11;102888.06;4919607;29;20091;-71
2022/03/17 14:53:35;;;;;;;10.10;5.53;;;;;;;7.14;41.84;102890.34;4919288;29;20028;-70
2022/03/17 14:56:23;;;;;;;12.02;6.03;;;;;;;6.96;43.07;102887.19;4919953;29;20342;-71
2022/03/17 14:59:09;;;;;;;11.63;5.72;;;;;;;6.74;41.93;102885.63;4919351;29;20063;-71
2022/03/17 15:01:55;;;;;;;13.45;6.70;;;;;;;6.91;41.91;102884.41;4919942;28;20035;-71
2022/03/17 15:04:41;;;;;;;19.02;5.93;;;;;;;6.74;42.19;102895.13;4919913;29;20036;-70
2022/03/17 15:07:29;;;;;;;11.05;6.43;;;;;;;6.79;41.91;102893.59;4920235;28;20091;-71
2022/03/17 15:10:15;;;;;;;16.27;7.20;;;;;;;6.82;42.76;102898.88;4918001;29;20035;-71
2022/03/17 15:13:02;;;;;;;9.13;6.80;;;;;;;6.85;42.19;102893.78;4920422;28;20295;-72
2022/03/17 15:15:48;;;;;;;14.20;6.72;;;;;;;7.39;42.12;102898.09;4906378;29;20346;-71
2022/03/17 15:18:33;;;;;;;11.20;5.65;;;;;;;7.09;41.40;102892.84;4920207;29;20048;-70
2022/03/17 15:21:19;;;;;;;10.48;6.28;;;;;;;6.66;42.89;102899.22;4919596;29;20020;-71
2022/03/17 15:24:05;;;;;;;8.60;6.10;;;;;;;6.70;42.48;102916.72;4919164;29;20023;-71
2022/03/17 15:26:52;;;;;;;12.90;5.20;;;;;;;6.47;43.49;102913.34;4918976;29;20414;-71
2022/03/17 15:32:46;;;;;;;10.75;5.70;;;;;;;6.29;43.64;102930.94;4917758;29;20028;-70
2022/03/17 15:35:32;;;;;;;11.38;5.20;;;;;;;6.48;43.81;102922.94;4919497;29;20172;-72
2022/03/17 15:38:18;;;;;;;15.43;6.43;;;;;;;6.76;42.91;102927.34;4919958;28;20115;-71
2022/03/17 15:41:04;;;;;;;11.50;5.70;;;;;;;6.61;42.38;102922.50;4918742;29;20039;-71
2022/03/17 15:43:50;;;;;;;8.80;5.35;;;;;;;6.36;42.04;102932.03;4920283;28;20036;-71
2022/03/17 15:46:35;;;;;;;10.40;4.90;;;;;;;6.17;41.37;102934.81;4919123;29;20104;-72
2022/03/17 15:49:21;;;;;;;11.57;5.30;;;;;;;6.16;41.77;102933.06;4906035;29;20028;-72
2022/03/17 15:52:07;;;;;;;10.45;6.30;;;;;;;6.29;42.00;102938.75;4919837;28;20032;-72
2022/03/17 15:54:53;;;;;;;9.85;6.03;;;;;;;6.11;42.63;102939.81;4919021;29;20051;-73
2022/03/17 15:57:38;;;;;;;11.00;5.50;;;;;;;6.40;42.48;102941.72;4905328;29;20047;-72
2022/03/17 16:00:27;;;;;;;14.55;6.65;;;;;;;6.83;41.63;102943.22;4919426;29;20346;-73
2022/03/17 16:03:15;;;;;;;11.38;5.72;;;;;;;6.16;41.89;102944.38;4919184;29;20100;-70
2022/03/17 16:06:02;;;;;;;12.30;6.38;;;;;;;6.39;42.38;102948.63;4919167;29;20024;-73
2022/03/17 16:08:48;;;;;;;21.58;8.90;;;;;;;6.82;41.75;102945.78;4919518;29;20028;-74
2022/03/17 16:14:38;;;;;;;11.77;6.35;;;;;;;6.35;41.50;102958.91;4920954;29;20380;-73
2022/03/17 16:17:24;;;;;;;16.63;7.55;;;;;;;6.21;41.91;102962.72;4908207;29;20028;-74
2022/03/17 16:20:10;;;;;;;13.57;7.93;;;;;;;6.43;42.14;102957.47;4921103;29;20064;-75
2022/03/17 16:22:58;;;;;;;11.07;6.97;;;;;;;6.58;41.44;102963.19;4921499;29;20055;-75
2022/03/17 16:25:44;;;;;;;9.65;5.63;;;;;;;6.17;41.90;102971.25;4907911;29;20063;-74
2022/03/17 16:28:30;;;;;;;13.20;6.30;;;;;;;6.78;41.10;102970.84;4922526;28;20028;-76
2022/03/17 16:31:18;;;;;;;11.30;6.68;;;;;;;6.91;41.53;102977.38;4921641;29;20031;-73
2022/03/17 16:34:04;;;;;;;27.63;14.88;;;;;;;6.57;41.69;102977.03;4921980;29;20035;-75
2022/03/17 16:36:50;;;;;;;44.15;24.05;;;;;;;6.72;41.57;102983.69;4920790;29;20524;-74
2022/03/17 16:39:36;;;;;;;23.13;12.45;;;;;;;7.11;41.19;102986.72;4921135;29;20063;-74
2022/03/17 16:42:22;;;;;;;12.57;6.75;;;;;;;7.03;40.67;102991.66;4921884;29;20406;-74
2022/03/17 16:45:09;;;;;;;19.75;10.50;;;;;;;7.03;41.06;102988.19;4922016;28;20043;-74
2022/03/17 16:47:54;;;;;;;11.93;8.23;;;;;;;6.41;41.57;102995.56;4921421;29;20032;-74
2022/03/17 16:50:40;;;;;;;20.27;13.75;;;;;;;6.92;41.38;102999.97;4921535;29;20038;-73
2022/03/17 16:53:26;;;;;;;14.23;8.88;;;;;;;6.95;41.74;103000.09;4920288;29;20020;-74
2022/03/17 16:56:12;;;;;;;13.60;6.90;;;;;;;7.22;41.18;103000.97;4921791;29;20382;-73
2022/03/17 16:58:57;;;;;;;19.08;9.77;;;;;;;6.92;41.25;103010.41;4907463;29;20028;-73
2022/03/17 17:01:46;;;;;;;15.95;10.20;;;;;;;6.50;41.81;103008.91;4921897;28;20438;-74
2022/03/17 17:04:33;;;;;;;15.40;7.88;;;;;;;6.60;41.95;103014.53;4921108;29;20496;-74
2022/03/17 17:07:20;;;;;;;14.70;9.68;;;;;;;6.66;42.00;103019.03;4920867;29;20036;-74
2022/03/17 17:10:06;;;;;;;21.40;11.45;;;;;;;6.92;41.85;103020.81;4920735;29;20028;-73
2022/03/17 17:12:52;;;;;;;24.13;12.15;;;;;;;6.81;42.11;103020.47;4920551;29;20028;-74
2022/03/17 17:15:38;;;;;;;19.60;10.57;;;;;;;6.87;42.17;103022.41;4920370;29;20477;-73
2022/03/17 17:18:24;;;;;;;15.77;7.82;;;;;;;6.83;41.95;103017.91;4921030;29;20039;-72
2022/03/17 17:21:10;;;;;;;15.55;7.32;;;;;;;6.58;42.61;103025.69;4922064;29;20398;-72
2022/03/17 17:33:10;;;;;;;15.63;7.93;;;;;;;6.71;42.49;103040.94;4920175;29;20092;-72
2022/03/17 17:35:56;;;;;;;18.67;8.82;;;;;;;7.06;41.67;103041.31;4920088;29;20032;-73
2022/03/17 17:38:41;;;;;;;18.63;9.82;;;;;;;6.68;42.92;103043.44;4920752;29;20044;-73
2022/03/17 17:41:27;;;;;;;13.57;8.50;;;;;;;6.51;42.45;103042.81;4918936;29;20476;-73
2022/03/17 17:44:13;;;;;;;18.80;9.90;;;;;;;6.68;42.56;103049.53;4906297;29;20422;-72
2022/03/17 17:46:59;;;;;;;15.82;9.27;;;;;;;6.74;42.50;103051.44;4905767;29;20111;-71
2022/03/17 17:49:45;;;;;;;26.02;13.90;;;;;;;6.93;41.86;103053.84;4921374;28;20055;-74
2022/03/17 17:52:30;;;;;;;20.83;9.60;;;;;;;6.70;42.67;103066.09;4920256;29;20382;-73
2022/03/17 17:55:16;;;;;;;25.98;11.20;;;;;;;6.78;42.89;103068.94;4921004;28;20462;-73
2022/03/17 17:58:02;;;;;;;14.98;8.88;;;;;;;6.13;43.45;103058.75;4919616;29;20032;-73
2022/03/17 18:00:48;;;;;;;20.95;11.75;;;;;;;6.28;43.24;103069.75;4905197;29;20362;-72
2022/03/17 18:03:34;;;;;;;20.40;14.00;;;;;;;6.06;43.95;103074.09;4906662;29;20040;-74
2022/03/17 18:06:20;;;;;;;13.15;8.98;;;;;;;6.53;43.26;103071.53;4920442;29;20119;-74
2022/03/17 18:09:06;;;;;;;14.80;8.18;;;;;;;6.11;43.67;103072.56;4921782;28;20038;-73
2022/03/17 18:11:52;;;;;;;11.88;8.07;;;;;;;6.37;43.76;103075.28;4919230;29;20124;-72
2022/03/17 18:14:38;;;;;;;11.10;7.30;;;;;;;6.10;43.90;103082.06;4919644;29;20358;-73
2022/03/17 18:17:24;;;;;;;23.83;14.88;;;;;;;6.37;44.33;103082.19;4920428;29;20096;-75
2022/03/17 18:20:10;;;;;;;14.90;8.57;;;;;;;6.17;44.24;103081.47;4919683;29;20032;-72
2022/03/17 18:22:56;;;;;;;13.45;8.85;;;;;;;5.85;45.00;103092.34;4906855;29;20028;-72
2022/03/17 18:25:43;;;;;;;16.73;9.43;;;;;;;5.96;45.13;103090.16;4920298;29;20361;-73
2022/03/17 18:28:29;;;;;;;19.23;10.60;;;;;;;6.11;45.16;103085.56;4920802;29;20107;-73
2022/03/17 18:31:17;;;;;;;20.55;10.90;;;;;;;6.16;44.88;103097.03;4920442;29;20063;-74
2022/03/17 18:34:03;;;;;;;30.45;16.48;;;;;;;6.00;45.28;103094.66;4919312;29;20036;-72
2022/03/17 18:36:49;;;;;;;39.00;20.40;;;;;;;6.32;44.66;103095.06;4918921;29;20055;-74
2022/03/17 18:39:35;;;;;;;40.17;20.25;;;;;;;5.99;45.09;103105.91;4920410;29;20457;-74
2022/03/17 18:42:21;;;;;;;35.70;21.08;;;;;;;5.92;45.35;103096.06;4919849;29;20028;-74
2022/03/17 18:45:08;;;;;;;26.77;14.13;;;;;;;5.91;45.30;103102.97;4920063;29;20050;-72
2022/03/17 18:47:56;;;;;;;43.28;25.60;;;;;;;6.13;45.18;103105.59;4919601;29;20446;-73
2022/03/17 18:50:42;;;;;;;27.70;15.98;;;;;;;5.90;45.30;103109.03;4920556;29;20124;-73
2022/03/17 18:53:28;;;;;;;32.83;17.98;;;;;;;5.68;45.29;103110.69;4919870;29;20441;-72
2022/03/17 18:56:14;;;;;;;41.42;24.75;;;;;;;5.69;45.20;103115.94;4919457;29;20036;-73
2022/03/17 18:59:00;;;;;;;38.88;19.55;;;;;;;5.75;45.62;103110.09;4919731;29;20036;-72
2022/03/17 19:01:48;;;;;;;30.77;16.05;;;;;;;5.53;45.86;103116.16;4920516;29;20035;-73
2022/03/17 19:04:33;;;;;;;34.88;15.63;;;;;;;5.79;45.62;103120.66;4918514;29;20040;-72
2022/03/17 19:07:19;;;;;;;28.67;15.23;;;;;;;5.21;46.40;103124.31;4918992;29;20119;-73
2022/03/17 19:10:07;;;;;;;47.05;24.42;;;;;;;5.33;46.78;103135.22;4918667;29;20052;-72
2022/03/17 19:12:53;;;;;;;45.00;24.02;;;;;;;5.49;45.91;103132.44;4919062;29;20095;-73
2022/03/17 19:15:38;;;;;;;25.27;13.57;;;;;;;5.62;46.00;103133.84;4919641;29;20040;-72
2022/03/17 19:18:24;;;;;;;26.98;15.75;;;;;;;5.00;47.40;103141.59;4919168;29;20460;-72
2022/03/17 19:21:10;;;;;;;25.90;15.05;;;;;;;5.40;46.59;103140.72;4919750;29;20373;-72
2022/03/17 19:23:56;;;;;;;24.90;13.88;;;;;;;5.14;46.61;103150.84;4919245;29;20095;-73
2022/03/17 19:26:43;;;;;;;28.90;19.35;;;;;;;5.20;46.71;103148.53;4918821;29;20124;-72
2022/03/17 19:29:30;;;;;;;21.73;13.60;;;;;;;5.19;46.89;103150.22;4904883;29;20028;-73
2022/03/17 19:32:19;;;;;;;25.52;14.90;;;;;;;4.94;47.12;103143.91;4919556;29;20043;-72
2022/03/17 19:35:05;;;;;;;24.92;13.60;;;;;;;5.26;46.75;103143.59;4904983;29;20043;-73
2022/03/17 19:37:50;;;;;;;27.08;14.00;;;;;;;4.88;47.76;103149.75;4904423;29;20060;-72
2022/03/17 19:43:45;;;;;;;24.92;14.25;;;;;;;4.76;47.78;103158.69;4918754;29;20032;-72
2022/03/17 19:46:32;;;;;;;25.98;14.90;;;;;;;4.91;47.60;103159.38;4917974;29;20040;-72
2022/03/17 19:50:53;;;;;;;26.40;15.35;;;;;;;5.08;47.72;103167.09;4919343;29;20111;-73
2022/03/17 19:52:24;;;;;;;25.13;13.35;;;;;;;4.89;47.60;103171.38;4918069;29;20024;-73
2022/03/17 19:55:09;;;;;;;21.77;12.63;;;;;;;4.88;47.44;103170.53;4919094;29;20032;-74
2022/03/17 19:57:55;;;;;;;22.50;12.80;;;;;;;4.51;47.59;103174.84;4922674;29;20036;-73
2022/03/17 20:00:44;;;;;;;23.65;12.52;;;;;;;4.62;47.84;103180.53;4918361;29;20035;-73
2022/03/17 20:03:33;;;;;;;25.13;13.82;;;;;;;4.64;48.12;103185.00;4918001;29;20025;-73
2022/03/17 20:06:20;;;;;;;26.30;15.20;;;;;;;4.71;48.31;103188.75;4918324;29;20032;-73
2022/03/17 20:09:09;;;;;;;26.75;14.27;;;;;;;4.89;47.97;103192.16;4919350;29;20198;-73
2022/03/17 20:14:59;;;;;;;21.33;12.88;;;;;;;4.52;48.40;103189.63;4918377;29;20184;-73
2022/03/17 20:17:48;;;;;;;29.27;14.27;;;;;;;4.45;48.75;103197.03;4917864;29;20107;-72
2022/03/17 20:20:36;;;;;;;23.52;13.25;;;;;;;4.69;48.56;103203.38;4918119;29;20036;-72
2022/03/17 20:23:26;;;;;;;25.77;14.52;;;;;;;4.32;48.90;103211.16;4918127;29;20155;-72
2022/03/17 20:26:13;;;;;;;24.63;12.20;;;;;;;4.25;48.66;103213.38;4918063;29;20042;-72
2022/03/17 20:28:59;;;;;;;19.50;11.15;;;;;;;4.22;48.99;103221.91;4917668;29;20035;-71
2022/03/17 20:31:45;;;;;;;47.88;20.77;;;;;;;4.18;49.09;103222.56;4904434;29;20099;-72
2022/03/17 20:34:32;;;;;;;67.43;31.80;;;;;;;4.08;49.52;103229.84;4918048;29;20126;-73
2022/03/17 20:37:20;;;;;;;58.17;26.88;;;;;;;4.05;49.27;103229.69;4918544;29;20476;-73
2022/03/17 20:40:09;;;;;;;32.95;16.40;;;;;;;3.89;50.19;103225.47;4917749;29;20040;-72
2022/03/17 20:42:55;;;;;;;62.25;28.70;;;;;;;3.85;50.28;103236.50;4905015;29;20032;-72
2022/03/17 20:45:42;;;;;;;60.33;28.30;;;;;;;4.02;50.64;103237.34;4918343;29;20043;-72
2022/03/17 20:48:31;;;;;;;30.70;15.15;;;;;;;3.80;50.61;103250.94;4918374;29;20032;-73